This is the latest recevied weather packets stored in our database for station/object SV1BYK-1. If no packets are shown the sender has not sent any weather packets the latest 10 day(s).
| Time | Temp. | Humidity | Pressure | Rain* | Wind** | Luminosity | Snow |
|---|---|---|---|---|---|---|---|
| 1777548716 | 26.11° C | 30% | 1010.8 hPa | 0 mm | - | - | - |
| 1777545475 | 26.67° C | 28% | 1011.6 hPa | 0 mm | - | - | - |
| 1777544936 | 27.22° C | 25% | 1011.9 hPa | 0 mm | - | - | - |
| 1777540616 | 26.11° C | 25% | 1013.4 hPa | 0 mm | - | - | - |
| 1777540076 | 26.67° C | 25% | 1013.6 hPa | 0 mm | - | - | - |
| 1777538996 | 26.11° C | 26% | 1013.9 hPa | 0 mm | - | - | - |
| 1777537916 | 25° C | 26% | 1013.8 hPa | 0 mm | - | - | - |
| 1777535216 | 25° C | 26% | 1015.7 hPa | 0 mm | - | - | - |
| 1777533056 | 25° C | 26% | 1015.7 hPa | 0 mm | - | - | - |
| 1777528736 | 24.44° C | 31% | 1016.1 hPa | 0 mm | - | - | - |
| 1777523876 | 16.67° C | 51% | 1015.9 hPa | 0 mm | - | - | - |
| 1777519016 | 16.67° C | 51% | 1015.9 hPa | 0 mm | - | - | - |
| 1777513076 | 16.67° C | 51% | 1015.9 hPa | 0 mm | - | - | - |
| 1777511456 | 16.67° C | 51% | 1015.9 hPa | 0 mm | - | - | - |
| 1777507136 | 16.67° C | 51% | 1015.9 hPa | 0 mm | - | - | - |
| 1777504976 | 16.67° C | 51% | 1015.9 hPa | 0 mm | - | - | - |
| 1777502816 | 16.67° C | 51% | 1015.9 hPa | 0 mm | - | - | - |
| 1777502276 | 16.67° C | 51% | 1015.9 hPa | 0 mm | - | - | - |
| 1777501736 | 16.67° C | 51% | 1015.9 hPa | 0 mm | - | - | - |
| 1777500116 | 16.67° C | 51% | 1015.9 hPa | 0 mm | - | - | - |
| 1777496876 | 16.67° C | 51% | 1015.9 hPa | 0 mm | - | - | - |
| 1777493096 | 18.33° C | 45% | 1014.6 hPa | 0 mm | - | - | - |
| 1777492556 | 18.33° C | 45% | 1014.6 hPa | 0 mm | - | - | - |
| 1777488236 | 18.89° C | 40% | 1014.9 hPa | 0 mm | - | - | - |
| 1777487156 | 19.44° C | 40% | 1015 hPa | 0 mm | - | - | - |
* Rain latest hour (hover to see other rain measurements)
** Current wind speed in m/s (hover to see current wind gust speed)